TTJ weather

Tottori Airport
Tottori, Tottori Prefecture, Japan

Public forecast

Using degrees Celsius for public forecast. Weather courtesy of forecast.io.

Current aviation weather report (METAR) for Tottori Airport

Report is more than 2 hours old.

Retrieved 2020/02/21 12:00 UTC (3 hours ago):

RJOR 211200Z 15010KT CAVOK 10/M01 Q1029

Closest aviation forecast (TAF) to Tottori Airport

Closest forecast is Miho Yonago Airport, 45.6 nm (84.4 km) W. Retrieved 2020/02/21 12:00 UTC (3 hours ago):

TAF RJOH 211107Z 2112/2218 18007KT 9999 FEW030 SCT040 TEMPO 2121/2200 22018G30KT 4000 SHRA BR BECMG 2200/2203 26023G35KT